Time;durP1;ratioP1;P1;durP2;ratioP2;P2;SDS_P1;SDS_P2;PMS_P1;PMS_P2;Temp;Humidity;BMP_temperature;BMP_pressure;BME280_temperature;BME280_humidity;BME280_pressure;Samples;Min_cycle;Max_cycle;Signal;HPM_P1;HPM_P2
2021/08/23 00:02:12;;;;;;;9.45;5.18;;;;;;;;;;5071682;28;20024;-76
2021/08/23 00:04:38;;;;;;;9.23;5.30;;;;;;;;;;5072970;28;20027;-78
2021/08/23 00:07:04;;;;;;;12.02;4.95;;;;;;;;;;5072965;28;20079;-76
2021/08/23 00:09:31;;;;;;;12.85;4.45;;;;;;;;;;5071265;28;20025;-74
2021/08/23 00:11:58;;;;;;;7.90;5.03;;;;;;;;;;5072076;28;20069;-74
2021/08/23 00:14:24;;;;;;;9.63;5.20;;;;;;;;;;5071757;28;20024;-74
2021/08/23 00:16:50;;;;;;;9.10;4.82;;;;;;;;;;5072270;28;20055;-75
2021/08/23 00:19:16;;;;;;;6.78;4.20;;;;;;;;;;5069347;28;20557;-78
2021/08/23 00:21:44;;;;;;;10.80;4.90;;;;;;;;;;5073772;28;20451;-75
2021/08/23 00:24:23;;;;;;;10.68;5.25;;;;;;;;;;5071970;28;20027;-78
2021/08/23 00:26:50;;;;;;;8.75;5.13;;;;;;;;;;5068690;28;20474;-74
2021/08/23 00:29:16;;;;;;;8.43;4.90;;;;;;;;;;5071399;28;21334;-90
2021/08/23 00:31:42;;;;;;;8.32;4.85;;;;;;;;;;5072443;28;20016;-77
2021/08/23 00:34:08;;;;;;;8.68;4.55;;;;;;;;;;5073640;28;20028;-85
2021/08/23 00:36:34;;;;;;;11.30;5.40;;;;;;;;;;5062829;28;20208;-77
2021/08/23 00:39:00;;;;;;;11.18;5.50;;;;;;;;;;5051164;28;20060;-79
2021/08/23 00:41:27;;;;;;;8.93;4.72;;;;;;;;;;5051274;28;20024;-82
2021/08/23 00:43:53;;;;;;;8.20;4.75;;;;;;;;;;5052836;28;20017;-81
2021/08/23 00:46:19;;;;;;;8.48;4.70;;;;;;;;;;5051087;28;20049;-78
2021/08/23 00:48:45;;;;;;;10.70;5.20;;;;;;;;;;5086674;28;20344;-81
2021/08/23 00:51:11;;;;;;;10.23;5.65;;;;;;;;;;5084275;28;20052;-76
2021/08/23 00:53:37;;;;;;;8.38;4.90;;;;;;;;;;5071114;28;20058;-76
2021/08/23 00:56:04;;;;;;;9.88;5.57;;;;;;;;;;5072054;28;20055;-77
2021/08/23 00:58:30;;;;;;;9.73;5.32;;;;;;;;;;5070882;28;20046;-77
2021/08/23 01:01:02;;;;;;;8.02;4.97;;;;;;;;;;5072132;28;20029;-76
2021/08/23 01:03:34;;;;;;;59.25;8.82;;;;;;;;;;5070924;28;20046;-78
2021/08/23 01:06:01;;;;;;;12.05;5.10;;;;;;;;;;5071957;28;20089;-75
2021/08/23 01:08:32;;;;;;;10.35;5.47;;;;;;;;;;5069067;28;20428;-76
2021/08/23 01:10:58;;;;;;;13.90;5.10;;;;;;;;;;5070386;28;20108;-76
2021/08/23 01:13:26;;;;;;;14.05;5.88;;;;;;;;;;5071496;28;20024;-76
2021/08/23 01:15:53;;;;;;;8.30;4.53;;;;;;;;;;5070516;28;20031;-77
2021/08/23 01:18:19;;;;;;;27.25;5.65;;;;;;;;;;5071848;28;20043;-77
2021/08/23 01:20:46;;;;;;;10.13;5.10;;;;;;;;;;5071822;28;20091;-76
2021/08/23 01:23:13;;;;;;;10.25;4.85;;;;;;;;;;5071691;28;20095;-77
2021/08/23 01:25:40;;;;;;;11.75;5.53;;;;;;;;;;5066939;28;20056;-76
2021/08/23 01:28:17;;;;;;;15.27;4.93;;;;;;;;;;5051735;28;20020;-77
2021/08/23 01:30:49;;;;;;;15.10;5.28;;;;;;;;;;5051941;28;20103;-78
2021/08/23 01:33:15;;;;;;;10.60;5.18;;;;;;;;;;5050534;28;20048;-76
2021/08/23 01:35:42;;;;;;;8.50;4.95;;;;;;;;;;5051852;28;20025;-75
2021/08/23 01:38:08;;;;;;;15.27;5.50;;;;;;;;;;5050605;28;20056;-75
2021/08/23 01:40:35;;;;;;;9.65;4.90;;;;;;;;;;5052108;28;20443;-75
2021/08/23 01:43:02;;;;;;;10.40;4.95;;;;;;;;;;5058482;28;20114;-75
2021/08/23 01:45:28;;;;;;;9.85;4.90;;;;;;;;;;5054260;28;20042;-75
2021/08/23 01:47:54;;;;;;;8.25;5.38;;;;;;;;;;5064365;28;20037;-75
2021/08/23 01:50:20;;;;;;;8.88;5.13;;;;;;;;;;5075473;28;20044;-75
2021/08/23 01:52:46;;;;;;;9.82;5.55;;;;;;;;;;5073777;28;20045;-75
2021/08/23 01:55:12;;;;;;;14.40;5.82;;;;;;;;;;5073696;28;20181;-75
2021/08/23 01:57:38;;;;;;;12.63;5.20;;;;;;;;;;5065599;28;20024;-75
2021/08/23 02:00:05;;;;;;;10.63;5.40;;;;;;;;;;5066465;28;20169;-75
2021/08/23 02:02:31;;;;;;;9.15;4.85;;;;;;;;;;5072272;28;20078;-75
2021/08/23 02:04:57;;;;;;;9.40;5.10;;;;;;;;;;5074648;28;20021;-75
2021/08/23 02:07:23;;;;;;;9.38;4.95;;;;;;;;;;5074587;28;20096;-75
2021/08/23 02:09:49;;;;;;;10.43;4.93;;;;;;;;;;5065078;28;20005;-75
2021/08/23 02:12:15;;;;;;;9.43;5.15;;;;;;;;;;5074896;28;20391;-73
2021/08/23 02:14:41;;;;;;;8.45;4.72;;;;;;;;;;5073904;28;20454;-76
2021/08/23 02:17:07;;;;;;;9.13;5.15;;;;;;;;;;5073928;28;20032;-75
2021/08/23 02:19:33;;;;;;;10.30;4.60;;;;;;;;;;5070028;28;20035;-75
2021/08/23 02:22:02;;;;;;;10.32;5.05;;;;;;;;;;5073616;28;20067;-75
2021/08/23 02:24:28;;;;;;;13.57;4.78;;;;;;;;;;5073610;28;20059;-75
2021/08/23 02:26:55;;;;;;;10.70;4.50;;;;;;;;;;5074656;28;20115;-75
2021/08/23 02:29:21;;;;;;;14.10;5.60;;;;;;;;;;5067537;28;20044;-75
2021/08/23 02:31:47;;;;;;;10.13;5.03;;;;;;;;;;5054909;28;20492;-75
2021/08/23 02:34:13;;;;;;;9.52;5.13;;;;;;;;;;5054231;28;20112;-75
2021/08/23 02:36:39;;;;;;;8.40;5.07;;;;;;;;;;5054390;28;20025;-75
2021/08/23 02:39:05;;;;;;;6.57;4.55;;;;;;;;;;5053291;28;20120;-74
2021/08/23 02:41:32;;;;;;;9.27;5.10;;;;;;;;;;5054418;28;20029;-74
2021/08/23 02:43:58;;;;;;;13.82;5.75;;;;;;;;;;5053380;28;20028;-74
2021/08/23 02:46:24;;;;;;;13.43;5.00;;;;;;;;;;5054619;28;20028;-75
2021/08/23 02:48:50;;;;;;;9.25;5.25;;;;;;;;;;5072054;28;20029;-74
2021/08/23 02:51:16;;;;;;;8.07;4.65;;;;;;;;;;5074199;28;20029;-75
2021/08/23 02:53:42;;;;;;;8.63;5.15;;;;;;;;;;5072964;28;20052;-74
2021/08/23 02:56:08;;;;;;;9.77;5.50;;;;;;;;;;5074184;28;20468;-74
2021/08/23 02:58:35;;;;;;;9.63;5.80;;;;;;;;;;5072977;28;20475;-74
2021/08/23 03:01:01;;;;;;;9.02;5.20;;;;;;;;;;5072826;28;20587;-74
2021/08/23 03:03:27;;;;;;;8.23;5.07;;;;;;;;;;5072972;28;20499;-74
2021/08/23 03:05:53;;;;;;;8.45;4.90;;;;;;;;;;5072565;28;20385;-75
2021/08/23 03:08:19;;;;;;;9.27;5.20;;;;;;;;;;5074100;28;20028;-74
2021/08/23 03:10:45;;;;;;;7.80;5.10;;;;;;;;;;5072817;28;20029;-74
2021/08/23 03:13:11;;;;;;;10.73;5.72;;;;;;;;;;5072456;28;20028;-74
2021/08/23 03:15:37;;;;;;;7.82;5.05;;;;;;;;;;5059866;28;20476;-75
2021/08/23 03:18:03;;;;;;;10.07;5.50;;;;;;;;;;5053871;28;20056;-75
2021/08/23 03:20:29;;;;;;;12.00;4.88;;;;;;;;;;5053853;28;20032;-76
2021/08/23 03:22:55;;;;;;;9.90;5.32;;;;;;;;;;5053876;28;20036;-76
2021/08/23 03:25:21;;;;;;;9.40;5.40;;;;;;;;;;5057681;28;20025;-77
2021/08/23 03:27:47;;;;;;;9.32;5.53;;;;;;;;;;5054065;28;20397;-76
2021/08/23 03:30:13;;;;;;;7.47;4.80;;;;;;;;;;5053699;28;20162;-76
2021/08/23 03:32:39;;;;;;;7.68;5.20;;;;;;;;;;5053353;28;20033;-76
2021/08/23 03:35:07;;;;;;;9.07;5.03;;;;;;;;;;5053603;28;20029;-77
2021/08/23 03:37:33;;;;;;;11.15;5.75;;;;;;;;;;5053459;28;20551;-76
2021/08/23 03:39:59;;;;;;;8.93;4.93;;;;;;;;;;5053677;28;20052;-76
2021/08/23 03:42:25;;;;;;;10.23;5.40;;;;;;;;;;5053632;28;20111;-77
2021/08/23 03:44:51;;;;;;;8.63;4.85;;;;;;;;;;5053386;28;20078;-77
2021/08/23 03:47:18;;;;;;;8.15;5.53;;;;;;;;;;5058142;28;20020;-77
2021/08/23 03:49:44;;;;;;;7.25;4.75;;;;;;;;;;5072165;28;20089;-77
2021/08/23 03:52:10;;;;;;;8.40;4.72;;;;;;;;;;5071805;28;20078;-76
2021/08/23 03:54:36;;;;;;;8.50;5.22;;;;;;;;;;5073362;28;20056;-75
2021/08/23 03:57:02;;;;;;;8.02;5.05;;;;;;;;;;5071910;28;20025;-76
2021/08/23 03:59:28;;;;;;;9.68;5.03;;;;;;;;;;5072949;28;20028;-75
2021/08/23 04:01:54;;;;;;;8.25;4.93;;;;;;;;;;5071740;28;20052;-76
2021/08/23 04:04:21;;;;;;;8.02;4.80;;;;;;;;;;5071163;28;20073;-76
2021/08/23 04:06:47;;;;;;;7.72;4.93;;;;;;;;;;5071421;28;20043;-76
2021/08/23 04:09:13;;;;;;;7.97;4.50;;;;;;;;;;5072821;28;20024;-76
2021/08/23 04:11:40;;;;;;;8.18;5.13;;;;;;;;;;5071516;28;20051;-77
2021/08/23 04:14:06;;;;;;;7.47;4.95;;;;;;;;;;5071263;28;20064;-76
2021/08/23 04:16:32;;;;;;;11.68;5.10;;;;;;;;;;5071674;28;20020;-75
2021/08/23 04:18:58;;;;;;;9.25;4.70;;;;;;;;;;5071536;28;20024;-76
2021/08/23 04:21:24;;;;;;;8.57;4.90;;;;;;;;;;5072888;28;20098;-75
2021/08/23 04:23:50;;;;;;;7.97;4.30;;;;;;;;;;5072676;28;20044;-75
2021/08/23 04:26:16;;;;;;;10.27;5.32;;;;;;;;;;5070932;28;20025;-75
2021/08/23 04:28:42;;;;;;;6.88;4.22;;;;;;;;;;5072554;28;20016;-75
2021/08/23 04:31:08;;;;;;;8.40;4.47;;;;;;;;;;5072521;28;20387;-75
2021/08/23 04:33:34;;;;;;;6.78;4.10;;;;;;;;;;5071358;28;20036;-75
2021/08/23 04:36:00;;;;;;;8.30;4.85;;;;;;;;;;5072374;28;20016;-74
2021/08/23 04:38:26;;;;;;;9.10;4.50;;;;;;;;;;5072288;28;20495;-75
2021/08/23 04:40:52;;;;;;;8.75;4.10;;;;;;;;;;5071165;28;20379;-75
2021/08/23 04:43:18;;;;;;;7.88;4.70;;;;;;;;;;5072341;28;20012;-75
2021/08/23 04:45:44;;;;;;;7.00;4.18;;;;;;;;;;5071846;28;20092;-75
2021/08/23 04:48:10;;;;;;;7.82;4.45;;;;;;;;;;5070892;28;20108;-76
2021/08/23 04:50:37;;;;;;;7.40;4.60;;;;;;;;;;5070946;28;20017;-75
2021/08/23 04:53:03;;;;;;;8.32;4.30;;;;;;;;;;5070711;28;20560;-75
2021/08/23 04:55:29;;;;;;;7.80;4.07;;;;;;;;;;5072191;28;20044;-76
2021/08/23 04:57:55;;;;;;;6.90;4.28;;;;;;;;;;5070632;28;20028;-76
2021/08/23 05:00:21;;;;;;;6.53;4.10;;;;;;;;;;5072260;28;20017;-76
2021/08/23 05:02:47;;;;;;;7.85;4.25;;;;;;;;;;5070911;28;20016;-76
2021/08/23 05:05:13;;;;;;;7.70;4.50;;;;;;;;;;5070741;28;20024;-76
2021/08/23 05:07:39;;;;;;;10.18;4.18;;;;;;;;;;5072180;28;20024;-75
2021/08/23 05:10:06;;;;;;;7.57;4.53;;;;;;;;;;5072019;28;20075;-76
2021/08/23 05:12:32;;;;;;;6.72;4.05;;;;;;;;;;5070546;28;20032;-75
2021/08/23 05:14:58;;;;;;;6.47;4.15;;;;;;;;;;5071675;28;20039;-74
2021/08/23 05:17:25;;;;;;;6.57;4.40;;;;;;;;;;5070654;28;20025;-75
2021/08/23 05:19:52;;;;;;;7.85;4.40;;;;;;;;;;5071837;28;20047;-75
2021/08/23 05:22:18;;;;;;;9.45;4.63;;;;;;;;;;5070476;28;20017;-74
2021/08/23 05:24:44;;;;;;;7.28;4.45;;;;;;;;;;5071715;28;20028;-74
2021/08/23 05:27:10;;;;;;;8.43;4.13;;;;;;;;;;5058479;28;20393;-75
2021/08/23 05:29:36;;;;;;;6.70;4.30;;;;;;;;;;5050462;28;20021;-75
2021/08/23 05:32:02;;;;;;;7.10;4.82;;;;;;;;;;5050418;28;20166;-75
2021/08/23 05:34:28;;;;;;;7.82;4.72;;;;;;;;;;5051677;28;20522;-75
2021/08/23 05:36:54;;;;;;;9.18;5.18;;;;;;;;;;5055853;28;20464;-75
2021/08/23 05:39:20;;;;;;;8.27;4.70;;;;;;;;;;5051676;28;20421;-75
2021/08/23 05:41:46;;;;;;;9.30;5.38;;;;;;;;;;5051763;28;20472;-77
2021/08/23 05:44:12;;;;;;;9.57;5.15;;;;;;;;;;5051734;28;20495;-75
2021/08/23 05:46:38;;;;;;;11.45;5.18;;;;;;;;;;5050571;28;20021;-74
2021/08/23 05:49:04;;;;;;;11.40;5.63;;;;;;;;;;5069959;28;20028;-74
2021/08/23 05:51:31;;;;;;;7.97;5.05;;;;;;;;;;5071484;28;20040;-75
2021/08/23 05:53:57;;;;;;;8.23;5.40;;;;;;;;;;5070273;28;20033;-75
2021/08/23 05:56:23;;;;;;;8.32;5.45;;;;;;;;;;5070456;28;20029;-74
2021/08/23 05:58:49;;;;;;;9.00;5.60;;;;;;;;;;5071706;28;20050;-74
2021/08/23 06:01:15;;;;;;;9.98;5.53;;;;;;;;;;5071598;28;20059;-77
2021/08/23 06:03:41;;;;;;;10.38;5.30;;;;;;;;;;5071542;28;20078;-76
2021/08/23 06:06:07;;;;;;;9.48;5.38;;;;;;;;;;5071364;28;20044;-74
2021/08/23 06:08:34;;;;;;;8.85;5.45;;;;;;;;;;5071261;28;20032;-74
2021/08/23 06:11:01;;;;;;;11.23;5.15;;;;;;;;;;5071160;28;20017;-73
2021/08/23 06:13:27;;;;;;;9.75;5.22;;;;;;;;;;5070125;28;20068;-75
2021/08/23 06:15:55;;;;;;;9.07;5.00;;;;;;;;;;5071374;28;20099;-74
2021/08/23 06:18:21;;;;;;;8.77;4.93;;;;;;;;;;5071531;28;20098;-76
2021/08/23 06:20:47;;;;;;;9.05;4.25;;;;;;;;;;5070042;28;20357;-76
2021/08/23 06:23:13;;;;;;;9.57;4.32;;;;;;;;;;5069820;28;20024;-75
2021/08/23 06:25:39;;;;;;;10.10;3.90;;;;;;;;;;5070517;28;20082;-74
2021/08/23 06:28:06;;;;;;;12.80;3.78;;;;;;;;;;5051726;28;20036;-76
2021/08/23 06:30:33;;;;;;;6.15;3.53;;;;;;;;;;5069846;28;20031;-76
2021/08/23 06:32:59;;;;;;;8.50;3.33;;;;;;;;;;5052995;28;20055;-76
2021/08/23 06:35:25;;;;;;;6.78;3.10;;;;;;;;;;5053571;28;20021;-75
2021/08/23 06:37:52;;;;;;;8.27;3.05;;;;;;;;;;5053470;28;20033;-77
2021/08/23 06:40:18;;;;;;;8.18;2.90;;;;;;;;;;5053942;28;20047;-76
2021/08/23 06:42:44;;;;;;;7.57;2.47;;;;;;;;;;5065381;28;20120;-77
2021/08/23 06:45:10;;;;;;;6.22;2.38;;;;;;;;;;5073822;28;20024;-77
2021/08/23 06:47:36;;;;;;;7.53;2.83;;;;;;;;;;5074235;28;20078;-77
2021/08/23 06:50:03;;;;;;;5.90;2.60;;;;;;;;;;5073040;28;20031;-77
2021/08/23 06:52:29;;;;;;;7.72;2.58;;;;;;;;;;5072705;28;20053;-76
2021/08/23 06:54:55;;;;;;;5.18;2.30;;;;;;;;;;5072907;28;20028;-77
2021/08/23 06:57:21;;;;;;;8.55;1.90;;;;;;;;;;5072868;28;20017;-77
2021/08/23 06:59:47;;;;;;;6.30;2.35;;;;;;;;;;5073992;28;20024;-76
2021/08/23 07:02:13;;;;;;;3.92;1.77;;;;;;;;;;5073137;28;20029;-77
2021/08/23 07:04:39;;;;;;;7.80;1.85;;;;;;;;;;5071965;28;20032;-77
2021/08/23 07:07:05;;;;;;;7.78;1.98;;;;;;;;;;5073909;28;20031;-77
2021/08/23 07:09:31;;;;;;;3.95;1.63;;;;;;;;;;5073982;28;20013;-76
2021/08/23 07:11:57;;;;;;;15.60;2.53;;;;;;;;;;5074037;28;20028;-79
2021/08/23 07:14:23;;;;;;;10.23;2.40;;;;;;;;;;5073835;28;20024;-77
2021/08/23 07:16:49;;;;;;;9.25;1.88;;;;;;;;;;5073840;28;20012;-80
2021/08/23 07:19:15;;;;;;;8.48;2.17;;;;;;;;;;5089254;28;20115;-77
2021/08/23 07:21:41;;;;;;;5.05;2.00;;;;;;;;;;5073741;28;20464;-78
2021/08/23 07:24:10;;;;;;;3.90;1.67;;;;;;;;;;5071772;28;20071;-79
2021/08/23 07:26:36;;;;;;;4.93;1.65;;;;;;;;;;5072717;28;20029;-78
2021/08/23 07:29:02;;;;;;;4.90;1.90;;;;;;;;;;5073689;28;20016;-76
2021/08/23 07:31:28;;;;;;;8.20;1.70;;;;;;;;;;5073804;28;20020;-76
2021/08/23 07:33:54;;;;;;;4.43;1.50;;;;;;;;;;5073610;28;20495;-77
2021/08/23 07:36:20;;;;;;;3.80;1.75;;;;;;;;;;5060611;28;20538;-77
2021/08/23 07:38:46;;;;;;;3.75;1.88;;;;;;;;;;5051892;28;20083;-82
2021/08/23 07:41:12;;;;;;;6.05;2.22;;;;;;;;;;5071312;28;20021;-78
2021/08/23 07:43:40;;;;;;;3.60;1.88;;;;;;;;;;5073985;28;20027;-77
2021/08/23 07:46:06;;;;;;;11.88;2.10;;;;;;;;;;5073491;28;20028;-77
2021/08/23 07:48:32;;;;;;;4.88;2.05;;;;;;;;;;5072005;28;20154;-78
2021/08/23 07:50:58;;;;;;;4.65;1.60;;;;;;;;;;5070306;28;20510;-78
2021/08/23 07:53:25;;;;;;;6.70;1.73;;;;;;;;;;5072556;28;20056;-80
2021/08/23 07:55:51;;;;;;;7.70;2.40;;;;;;;;;;5071598;28;20017;-80
2021/08/23 07:58:17;;;;;;;5.43;2.10;;;;;;;;;;5073405;28;20024;-80
2021/08/23 08:00:43;;;;;;;6.60;2.45;;;;;;;;;;5073128;28;20453;-79
2021/08/23 08:03:09;;;;;;;6.13;2.00;;;;;;;;;;5072708;28;20020;-77
2021/08/23 08:05:38;;;;;;;7.30;2.05;;;;;;;;;;5072642;28;20229;-78
2021/08/23 08:08:08;;;;;;;7.57;2.13;;;;;;;;;;5071747;28;20474;-78
2021/08/23 08:10:34;;;;;;;5.32;2.33;;;;;;;;;;5072920;28;20024;-78
2021/08/23 08:13:00;;;;;;;5.00;2.10;;;;;;;;;;5072801;28;20050;-78
2021/08/23 08:15:26;;;;;;;5.38;2.10;;;;;;;;;;5057064;28;20480;-85
2021/08/23 08:17:53;;;;;;;4.57;2.28;;;;;;;;;;5051452;28;20021;-78
2021/08/23 08:20:19;;;;;;;4.10;1.80;;;;;;;;;;5051440;28;20098;-80
2021/08/23 08:22:45;;;;;;;5.68;2.10;;;;;;;;;;5053086;28;20017;-80
2021/08/23 08:25:11;;;;;;;6.75;2.38;;;;;;;;;;5056361;28;20123;-79
2021/08/23 08:27:38;;;;;;;4.20;1.92;;;;;;;;;;5052798;28;20091;-79
2021/08/23 08:30:04;;;;;;;4.75;2.08;;;;;;;;;;5052630;28;20476;-77
2021/08/23 08:32:31;;;;;;;6.95;2.00;;;;;;;;;;5052621;28;20076;-76
2021/08/23 08:34:57;;;;;;;5.72;2.50;;;;;;;;;;5052424;28;20049;-77
2021/08/23 08:37:23;;;;;;;4.72;2.10;;;;;;;;;;5052498;28;20059;-76
2021/08/23 08:39:49;;;;;;;4.50;2.10;;;;;;;;;;5052437;28;20548;-77
2021/08/23 08:42:17;;;;;;;5.35;2.05;;;;;;;;;;5052245;28;20045;-74
2021/08/23 08:44:43;;;;;;;5.55;2.17;;;;;;;;;;5052433;28;20020;-74
2021/08/23 08:47:10;;;;;;;5.50;2.35;;;;;;;;;;5055947;28;20555;-76
2021/08/23 08:49:37;;;;;;;4.57;1.88;;;;;;;;;;5072192;28;20170;-74
2021/08/23 08:52:05;;;;;;;5.90;2.15;;;;;;;;;;5071745;28;20044;-76
2021/08/23 08:54:31;;;;;;;5.65;2.20;;;;;;;;;;5072180;28;20035;-74
2021/08/23 08:56:57;;;;;;;4.25;2.20;;;;;;;;;;5072321;28;20621;-77
2021/08/23 08:59:23;;;;;;;9.00;2.60;;;;;;;;;;5071245;28;20621;-77
2021/08/23 09:01:49;;;;;;;10.82;2.15;;;;;;;;;;5072491;28;20021;-76
2021/08/23 09:04:15;;;;;;;5.47;2.30;;;;;;;;;;5072280;28;20030;-77
2021/08/23 09:06:42;;;;;;;5.35;2.33;;;;;;;;;;5071855;28;20504;-76
2021/08/23 09:09:10;;;;;;;8.77;2.25;;;;;;;;;;5072200;28;20109;-75
2021/08/23 09:11:36;;;;;;;3.83;2.00;;;;;;;;;;5071038;28;20479;-77
2021/08/23 09:14:06;;;;;;;9.32;1.83;;;;;;;;;;5070854;28;20048;-75
2021/08/23 09:16:33;;;;;;;4.20;2.03;;;;;;;;;;5071026;28;20131;-75
2021/08/23 09:18:59;;;;;;;4.75;2.38;;;;;;;;;;5072028;28;20020;-75
2021/08/23 09:21:30;;;;;;;6.10;2.00;;;;;;;;;;5070505;28;20024;-74
2021/08/23 09:23:59;;;;;;;4.35;1.95;;;;;;;;;;5070721;28;20039;-75
2021/08/23 09:26:35;;;;;;;6.80;2.22;;;;;;;;;;5070628;28;20138;-80
2021/08/23 09:29:03;;;;;;;5.25;1.98;;;;;;;;;;5071976;28;20376;-75
2021/08/23 09:31:36;;;;;;;4.80;2.25;;;;;;;;;;5071803;28;20025;-75
2021/08/23 09:34:04;;;;;;;4.47;1.83;;;;;;;;;;5071093;28;20040;-76
2021/08/23 09:36:31;;;;;;;4.60;2.05;;;;;;;;;;5070373;28;20078;-76
2021/08/23 09:38:57;;;;;;;5.20;1.98;;;;;;;;;;5070813;28;20033;-75
2021/08/23 09:41:23;;;;;;;5.03;1.90;;;;;;;;;;5070469;28;20056;-78
2021/08/23 09:44:00;;;;;;;4.55;1.88;;;;;;;;;;5070683;28;20020;-77
2021/08/23 09:46:26;;;;;;;3.05;1.58;;;;;;;;;;5070410;28;20027;-75
2021/08/23 09:48:53;;;;;;;4.00;1.83;;;;;;;;;;5070303;28;20437;-76
2021/08/23 09:51:27;;;;;;;3.75;1.85;;;;;;;;;;5070224;28;20103;-77
2021/08/23 09:54:03;;;;;;;3.63;1.70;;;;;;;;;;5071637;28;20033;-77
2021/08/23 09:56:29;;;;;;;4.03;1.83;;;;;;;;;;5071426;28;20016;-75
2021/08/23 09:58:55;;;;;;;3.88;1.67;;;;;;;;;;5070529;28;20029;-74
2021/08/23 10:01:21;;;;;;;7.53;2.35;;;;;;;;;;5072012;28;20024;-76
2021/08/23 10:03:48;;;;;;;3.20;1.42;;;;;;;;;;5074107;28;20036;-76
2021/08/23 10:06:14;;;;;;;4.78;1.52;;;;;;;;;;5075247;28;20020;-79
2021/08/23 10:08:40;;;;;;;4.05;1.90;;;;;;;;;;5074042;28;20024;-79
2021/08/23 10:11:09;;;;;;;4.78;1.88;;;;;;;;;;5075477;28;20099;-79
2021/08/23 10:13:36;;;;;;;4.22;2.10;;;;;;;;;;5073899;28;20036;-79
2021/08/23 10:16:02;;;;;;;3.80;1.80;;;;;;;;;;5073793;28;20021;-77
2021/08/23 10:18:28;;;;;;;3.10;1.50;;;;;;;;;;5075327;28;20031;-75
2021/08/23 10:20:54;;;;;;;5.75;1.75;;;;;;;;;;5073831;28;20384;-74
2021/08/23 10:23:21;;;;;;;5.25;1.73;;;;;;;;;;5073777;28;20115;-78
2021/08/23 10:25:48;;;;;;;6.97;1.67;;;;;;;;;;5069715;28;20021;-77
2021/08/23 10:28:16;;;;;;;2.58;1.23;;;;;;;;;;5053631;28;20016;-77
2021/08/23 10:30:42;;;;;;;6.78;1.77;;;;;;;;;;5068464;28;20020;-77
2021/08/23 10:33:11;;;;;;;5.90;2.30;;;;;;;;;;5074383;28;20044;-77
2021/08/23 10:35:49;;;;;;;3.88;2.03;;;;;;;;;;5059139;28;20133;-77
2021/08/23 10:38:18;;;;;;;7.43;3.22;;;;;;;;;;5055528;28;20104;-75
2021/08/23 10:40:44;;;;;;;7.53;3.67;;;;;;;;;;5054716;28;20021;-75
2021/08/23 10:43:17;;;;;;;4.53;2.33;;;;;;;;;;5054522;28;20469;-75
2021/08/23 10:45:44;;;;;;;4.45;2.30;;;;;;;;;;5053363;28;20021;-75
2021/08/23 10:48:15;;;;;;;4.60;2.05;;;;;;;;;;5053212;28;20386;-75
2021/08/23 10:50:41;;;;;;;5.13;2.30;;;;;;;;;;5054608;28;20539;-75
2021/08/23 10:53:15;;;;;;;6.00;2.50;;;;;;;;;;5054450;28;20053;-75
2021/08/23 10:55:41;;;;;;;4.53;1.90;;;;;;;;;;5053100;28;20021;-74
2021/08/23 10:58:11;;;;;;;5.72;2.00;;;;;;;;;;5058171;28;20476;-75
2021/08/23 11:00:38;;;;;;;5.80;2.67;;;;;;;;;;5054482;28;20036;-77
2021/08/23 11:03:04;;;;;;;4.55;2.20;;;;;;;;;;5054277;28;20039;-79
2021/08/23 11:05:33;;;;;;;8.73;4.00;;;;;;;;;;5052748;28;20078;-78
2021/08/23 11:08:03;;;;;;;5.20;2.95;;;;;;;;;;5052938;28;20029;-75
2021/08/23 11:10:30;;;;;;;6.80;2.45;;;;;;;;;;5054158;28;20082;-77
2021/08/23 11:12:57;;;;;;;5.35;2.15;;;;;;;;;;5053563;28;20036;-75
2021/08/23 11:15:33;;;;;;;4.88;2.40;;;;;;;;;;5052658;28;20539;-77
2021/08/23 11:18:02;;;;;;;4.00;2.13;;;;;;;;;;5052818;28;20033;-74
2021/08/23 11:20:29;;;;;;;5.45;2.83;;;;;;;;;;5053849;28;20017;-75
2021/08/23 11:23:02;;;;;;;4.18;2.05;;;;;;;;;;5053757;28;20114;-74
2021/08/23 11:25:29;;;;;;;4.55;2.28;;;;;;;;;;5053642;28;20025;-74
2021/08/23 11:27:55;;;;;;;3.95;2.05;;;;;;;;;;5053435;28;20013;-75
2021/08/23 11:30:51;;;;;;;3.95;1.92;;;;;;;;;;5052265;28;20036;-73
2021/08/23 11:33:34;;;;;;;4.28;2.25;;;;;;;;;;5047582;28;20037;-74
2021/08/23 11:36:01;;;;;;;4.20;2.08;;;;;;;;;;5071732;28;20035;-76
2021/08/23 11:38:32;;;;;;;3.25;1.60;;;;;;;;;;5072225;28;20028;-76
2021/08/23 11:40:58;;;;;;;5.30;1.70;;;;;;;;;;5072405;28;20052;-77
2021/08/23 11:43:29;;;;;;;4.57;1.60;;;;;;;;;;5073681;28;20044;-76
2021/08/23 11:45:56;;;;;;;3.45;1.70;;;;;;;;;;5073451;28;20024;-76
2021/08/23 11:48:22;;;;;;;3.85;1.80;;;;;;;;;;5073392;28;20028;-75
2021/08/23 11:50:48;;;;;;;4.35;1.85;;;;;;;;;;5073594;28;20033;-76
2021/08/23 11:53:15;;;;;;;3.30;1.40;;;;;;;;;;5071930;28;20555;-76
2021/08/23 11:55:44;;;;;;;3.25;1.77;;;;;;;;;;5073277;28;20385;-76
2021/08/23 11:58:12;;;;;;;3.53;1.60;;;;;;;;;;5071724;28;20052;-74
2021/08/23 12:00:39;;;;;;;4.38;1.80;;;;;;;;;;5073287;28;20066;-76
2021/08/23 12:03:12;;;;;;;3.40;1.75;;;;;;;;;;5072156;28;20434;-77
2021/08/23 12:05:42;;;;;;;3.38;1.60;;;;;;;;;;5073332;28;20017;-76
2021/08/23 12:08:09;;;;;;;3.22;1.60;;;;;;;;;;5071926;28;20020;-75
2021/08/23 12:10:36;;;;;;;4.85;1.60;;;;;;;;;;5071695;28;20024;-76
2021/08/23 12:13:15;;;;;;;5.68;1.70;;;;;;;;;;5071556;28;20387;-76
2021/08/23 12:15:54;;;;;;;4.53;1.98;;;;;;;;;;5072881;28;20016;-75
2021/08/23 12:18:29;;;;;;;3.80;1.52;;;;;;;;;;5071365;28;20441;-74
2021/08/23 12:21:04;;;;;;;4.60;1.40;;;;;;;;;;5071097;28;20021;-75
2021/08/23 12:23:30;;;;;;;2.90;1.52;;;;;;;;;;5071281;28;20099;-75
2021/08/23 12:26:08;;;;;;;3.75;1.55;;;;;;;;;;5072641;28;20013;-75
2021/08/23 12:28:34;;;;;;;5.00;1.80;;;;;;;;;;5071488;28;20541;-75
2021/08/23 12:31:05;;;;;;;3.30;1.38;;;;;;;;;;5070040;28;20424;-73
2021/08/23 12:33:31;;;;;;;3.67;1.55;;;;;;;;;;5072217;28;20040;-78
2021/08/23 12:35:57;;;;;;;5.28;1.77;;;;;;;;;;5072171;28;20035;-74
2021/08/23 12:38:23;;;;;;;4.53;1.90;;;;;;;;;;5070859;28;20039;-76
2021/08/23 12:40:49;;;;;;;2.97;1.42;;;;;;;;;;5070757;28;20016;-75
2021/08/23 12:43:15;;;;;;;3.97;1.50;;;;;;;;;;5072134;28;20487;-74
2021/08/23 12:45:42;;;;;;;3.88;1.52;;;;;;;;;;5072214;28;20021;-74
2021/08/23 12:48:08;;;;;;;4.13;1.60;;;;;;;;;;5072387;28;20104;-76
2021/08/23 12:50:34;;;;;;;5.63;1.67;;;;;;;;;;5070651;28;20031;-76
2021/08/23 12:53:00;;;;;;;4.95;1.70;;;;;;;;;;5071781;28;20088;-76
2021/08/23 12:55:26;;;;;;;4.40;1.60;;;;;;;;;;5072034;28;20384;-77
2021/08/23 12:57:53;;;;;;;5.75;1.75;;;;;;;;;;5072147;28;20052;-75
2021/08/23 13:00:19;;;;;;;3.25;1.40;;;;;;;;;;5071827;28;20089;-76
2021/08/23 13:02:47;;;;;;;4.78;1.35;;;;;;;;;;5070189;28;20032;-75
2021/08/23 13:05:13;;;;;;;4.57;1.67;;;;;;;;;;5071773;28;20436;-73
2021/08/23 13:07:39;;;;;;;5.38;1.70;;;;;;;;;;5071798;28;20027;-75
2021/08/23 13:10:06;;;;;;;3.13;1.40;;;;;;;;;;5070265;28;20021;-73
2021/08/23 13:12:32;;;;;;;4.30;1.65;;;;;;;;;;5070423;28;20024;-75
2021/08/23 13:14:58;;;;;;;2.95;1.38;;;;;;;;;;5070287;28;20057;-75
2021/08/23 13:17:25;;;;;;;3.83;1.80;;;;;;;;;;5071683;28;20032;-76
2021/08/23 13:19:51;;;;;;;4.13;1.50;;;;;;;;;;5070276;28;20052;-75
2021/08/23 13:22:17;;;;;;;3.40;1.50;;;;;;;;;;5070698;28;20074;-75
2021/08/23 13:24:43;;;;;;;4.75;1.80;;;;;;;;;;5069991;28;20691;-74
2021/08/23 13:27:09;;;;;;;5.50;1.80;;;;;;;;;;5069643;28;20043;-74
2021/08/23 13:29:35;;;;;;;8.50;2.30;;;;;;;;;;5071677;28;20453;-75
2021/08/23 13:32:01;;;;;;;4.63;1.98;;;;;;;;;;5059685;28;20008;-76
2021/08/23 13:34:28;;;;;;;5.50;1.83;;;;;;;;;;5071414;28;20165;-73
2021/08/23 13:36:54;;;;;;;7.05;1.90;;;;;;;;;;5073277;28;20020;-74
2021/08/23 13:39:20;;;;;;;4.45;1.75;;;;;;;;;;5075785;28;20028;-75
2021/08/23 13:41:48;;;;;;;5.13;1.73;;;;;;;;;;5068620;28;20044;-75
2021/08/23 13:44:14;;;;;;;8.32;1.77;;;;;;;;;;5055388;28;20024;-75
2021/08/23 13:46:40;;;;;;;6.88;1.90;;;;;;;;;;5054181;28;20048;-75
2021/08/23 13:49:06;;;;;;;7.30;1.92;;;;;;;;;;5055469;28;20067;-74
2021/08/23 13:51:32;;;;;;;5.47;2.03;;;;;;;;;;5055347;28;20036;-75
2021/08/23 13:53:59;;;;;;;7.80;2.47;;;;;;;;;;5055118;28;20033;-76
2021/08/23 13:56:25;;;;;;;9.52;2.28;;;;;;;;;;5053958;28;20052;-76
2021/08/23 13:58:56;;;;;;;8.20;2.10;;;;;;;;;;5054129;28;20071;-75
2021/08/23 14:01:23;;;;;;;5.50;2.50;;;;;;;;;;5055490;28;20372;-75
2021/08/23 14:03:49;;;;;;;6.25;2.15;;;;;;;;;;5055301;28;20021;-73
2021/08/23 14:06:15;;;;;;;6.32;2.33;;;;;;;;;;5053702;28;20024;-74
2021/08/23 14:08:41;;;;;;;5.93;2.60;;;;;;;;;;5054193;28;20021;-74
2021/08/23 14:11:07;;;;;;;5.63;2.70;;;;;;;;;;5053838;28;20025;-74
2021/08/23 14:13:33;;;;;;;5.10;2.28;;;;;;;;;;5054961;28;20033;-74
2021/08/23 14:15:59;;;;;;;3.97;1.90;;;;;;;;;;5054734;28;20614;-74
2021/08/23 14:18:25;;;;;;;5.13;1.90;;;;;;;;;;5053441;28;20040;-77
2021/08/23 14:20:51;;;;;;;5.47;2.00;;;;;;;;;;5055097;28;20063;-76
2021/08/23 14:23:19;;;;;;;4.80;2.15;;;;;;;;;;5053704;28;20025;-76
2021/08/23 14:25:46;;;;;;;5.45;1.88;;;;;;;;;;5054970;28;20029;-75
2021/08/23 14:28:13;;;;;;;4.90;2.00;;;;;;;;;;5071267;28;20028;-73
2021/08/23 14:30:39;;;;;;;5.45;2.25;;;;;;;;;;5072981;28;20017;-73
2021/08/23 14:33:05;;;;;;;5.28;2.28;;;;;;;;;;5073216;28;20032;-73
2021/08/23 14:35:32;;;;;;;5.15;1.95;;;;;;;;;;5074217;28;20025;-75
2021/08/23 14:37:58;;;;;;;5.47;2.10;;;;;;;;;;5073373;28;20542;-76
2021/08/23 14:40:26;;;;;;;5.45;2.40;;;;;;;;;;5074707;28;20020;-75